sensor_id;sensor_type;location;lat;lon;timestamp;temperature;humidity
46217;DHT22;47258;59.424;13.482;2023-04-25T00:00:14;7.40;99.90
46217;DHT22;47258;59.424;13.482;2023-04-25T00:02:47;7.40;99.90
46217;DHT22;47258;59.424;13.482;2023-04-25T00:05:18;7.30;99.90
46217;DHT22;47258;59.424;13.482;2023-04-25T00:07:51;7.30;99.90
46217;DHT22;47258;59.424;13.482;2023-04-25T00:10:24;7.20;99.90
46217;DHT22;47258;59.424;13.482;2023-04-25T00:12:57;7.20;99.90
46217;DHT22;47258;59.424;13.482;2023-04-25T00:15:33;7.20;99.90
46217;DHT22;47258;59.424;13.482;2023-04-25T00:18:12;7.20;99.90
46217;DHT22;47258;59.424;13.482;2023-04-25T00:20:48;7.10;99.90
46217;DHT22;47258;59.424;13.482;2023-04-25T00:23:34;7.10;99.90
46217;DHT22;47258;59.424;13.482;2023-04-25T00:26:09;7.10;99.90
46217;DHT22;47258;59.424;13.482;2023-04-25T00:28:40;7.10;99.90
46217;DHT22;47258;59.424;13.482;2023-04-25T00:31:12;7.10;99.90
46217;DHT22;47258;59.424;13.482;2023-04-25T00:33:47;7.00;99.90
46217;DHT22;47258;59.424;13.482;2023-04-25T00:36:19;7.00;99.90
46217;DHT22;47258;59.424;13.482;2023-04-25T00:38:54;7.00;99.90
46217;DHT22;47258;59.424;13.482;2023-04-25T00:41:28;6.90;99.90
46217;DHT22;47258;59.424;13.482;2023-04-25T00:44:00;6.90;99.90
46217;DHT22;47258;59.424;13.482;2023-04-25T00:46:32;6.90;99.90
46217;DHT22;47258;59.424;13.482;2023-04-25T00:49:05;6.90;99.90
46217;DHT22;47258;59.424;13.482;2023-04-25T00:51:43;6.90;99.90
46217;DHT22;47258;59.424;13.482;2023-04-25T00:54:16;6.80;99.90
46217;DHT22;47258;59.424;13.482;2023-04-25T00:56:50;6.80;99.90
46217;DHT22;47258;59.424;13.482;2023-04-25T00:59:28;6.80;99.90
46217;DHT22;47258;59.424;13.482;2023-04-25T01:01:57;6.80;99.90
46217;DHT22;47258;59.424;13.482;2023-04-25T01:04:25;6.80;99.90
46217;DHT22;47258;59.424;13.482;2023-04-25T01:06:53;6.70;99.90
46217;DHT22;47258;59.424;13.482;2023-04-25T01:09:22;6.70;99.90
46217;DHT22;47258;59.424;13.482;2023-04-25T01:11:49;6.70;99.90
46217;DHT22;47258;59.424;13.482;2023-04-25T01:14:16;6.70;99.90
46217;DHT22;47258;59.424;13.482;2023-04-25T01:16:42;6.60;99.90
46217;DHT22;47258;59.424;13.482;2023-04-25T01:19:10;6.60;99.90
46217;DHT22;47258;59.424;13.482;2023-04-25T01:21:39;6.60;99.90
46217;DHT22;47258;59.424;13.482;2023-04-25T01:24:06;6.50;99.90
46217;DHT22;47258;59.424;13.482;2023-04-25T01:26:32;6.50;99.90
46217;DHT22;47258;59.424;13.482;2023-04-25T01:29:00;6.50;99.90
46217;DHT22;47258;59.424;13.482;2023-04-25T01:31:27;6.50;99.90
46217;DHT22;47258;59.424;13.482;2023-04-25T01:33:54;6.40;99.90
46217;DHT22;47258;59.424;13.482;2023-04-25T01:36:21;6.40;99.90
46217;DHT22;47258;59.424;13.482;2023-04-25T01:38:50;6.40;99.90
46217;DHT22;47258;59.424;13.482;2023-04-25T01:41:17;6.40;99.90
46217;DHT22;47258;59.424;13.482;2023-04-25T01:43:44;6.40;99.90
46217;DHT22;47258;59.424;13.482;2023-04-25T01:46:11;6.30;99.90
46217;DHT22;47258;59.424;13.482;2023-04-25T01:48:38;6.30;99.90
46217;DHT22;47258;59.424;13.482;2023-04-25T01:51:05;6.30;99.90
46217;DHT22;47258;59.424;13.482;2023-04-25T01:53:32;6.30;99.90
46217;DHT22;47258;59.424;13.482;2023-04-25T01:56:00;6.30;99.90
46217;DHT22;47258;59.424;13.482;2023-04-25T01:58:27;6.30;99.90
46217;DHT22;47258;59.424;13.482;2023-04-25T02:00:54;6.20;99.90
46217;DHT22;47258;59.424;13.482;2023-04-25T02:03:21;6.20;99.90
46217;DHT22;47258;59.424;13.482;2023-04-25T02:05:47;6.20;99.90
46217;DHT22;47258;59.424;13.482;2023-04-25T02:08:15;6.20;99.90
46217;DHT22;47258;59.424;13.482;2023-04-25T02:10:42;6.10;99.90
46217;DHT22;47258;59.424;13.482;2023-04-25T02:13:11;6.10;99.90
46217;DHT22;47258;59.424;13.482;2023-04-25T02:15:38;6.10;99.90
46217;DHT22;47258;59.424;13.482;2023-04-25T02:18:04;6.10;99.90
46217;DHT22;47258;59.424;13.482;2023-04-25T02:20:32;6.10;99.90
46217;DHT22;47258;59.424;13.482;2023-04-25T02:22:59;6.00;99.90
46217;DHT22;47258;59.424;13.482;2023-04-25T02:25:25;6.00;99.90
46217;DHT22;47258;59.424;13.482;2023-04-25T02:27:52;6.00;99.90
46217;DHT22;47258;59.424;13.482;2023-04-25T02:30:21;6.00;99.90
46217;DHT22;47258;59.424;13.482;2023-04-25T02:32:48;5.90;99.90
46217;DHT22;47258;59.424;13.482;2023-04-25T02:35:14;5.90;99.90
46217;DHT22;47258;59.424;13.482;2023-04-25T02:37:41;5.90;99.90
46217;DHT22;47258;59.424;13.482;2023-04-25T02:40:09;5.90;99.90
46217;DHT22;47258;59.424;13.482;2023-04-25T02:42:36;5.90;99.90
46217;DHT22;47258;59.424;13.482;2023-04-25T02:45:03;5.80;99.90
46217;DHT22;47258;59.424;13.482;2023-04-25T02:47:31;5.80;99.90
46217;DHT22;47258;59.424;13.482;2023-04-25T02:49:58;5.80;99.90
46217;DHT22;47258;59.424;13.482;2023-04-25T02:52:24;5.80;99.90
46217;DHT22;47258;59.424;13.482;2023-04-25T02:54:51;5.70;99.90
46217;DHT22;47258;59.424;13.482;2023-04-25T02:57:18;5.70;99.90
46217;DHT22;47258;59.424;13.482;2023-04-25T02:59:45;5.70;99.90
46217;DHT22;47258;59.424;13.482;2023-04-25T03:02:12;5.70;99.90
46217;DHT22;47258;59.424;13.482;2023-04-25T03:04:40;5.70;99.90
46217;DHT22;47258;59.424;13.482;2023-04-25T03:07:07;5.70;99.90
46217;DHT22;47258;59.424;13.482;2023-04-25T03:09:34;5.70;99.90
46217;DHT22;47258;59.424;13.482;2023-04-25T03:12:01;5.70;99.90
46217;DHT22;47258;59.424;13.482;2023-04-25T03:14:27;5.60;99.90
46217;DHT22;47258;59.424;13.482;2023-04-25T03:16:54;5.60;99.90
46217;DHT22;47258;59.424;13.482;2023-04-25T03:19:21;5.60;99.90
46217;DHT22;47258;59.424;13.482;2023-04-25T03:21:49;5.60;99.90
46217;DHT22;47258;59.424;13.482;2023-04-25T03:24:16;5.60;99.90
46217;DHT22;47258;59.424;13.482;2023-04-25T03:26:43;5.60;99.90
46217;DHT22;47258;59.424;13.482;2023-04-25T03:29:10;5.60;99.90
46217;DHT22;47258;59.424;13.482;2023-04-25T03:31:36;5.50;99.90
46217;DHT22;47258;59.424;13.482;2023-04-25T03:34:03;5.50;99.90
46217;DHT22;47258;59.424;13.482;2023-04-25T03:36:30;5.50;99.90
46217;DHT22;47258;59.424;13.482;2023-04-25T03:38:59;5.50;99.90
46217;DHT22;47258;59.424;13.482;2023-04-25T03:41:26;5.40;99.90
46217;DHT22;47258;59.424;13.482;2023-04-25T03:43:53;5.40;99.90
46217;DHT22;47258;59.424;13.482;2023-04-25T03:46:20;5.50;99.90
46217;DHT22;47258;59.424;13.482;2023-04-25T03:48:46;5.40;99.90
46217;DHT22;47258;59.424;13.482;2023-04-25T03:51:13;5.50;99.90
46217;DHT22;47258;59.424;13.482;2023-04-25T03:53:40;5.40;99.90
46217;DHT22;47258;59.424;13.482;2023-04-25T03:56:08;5.40;99.90
46217;DHT22;47258;59.424;13.482;2023-04-25T03:58:35;5.40;99.90
46217;DHT22;47258;59.424;13.482;2023-04-25T04:01:02;5.40;99.90
46217;DHT22;47258;59.424;13.482;2023-04-25T04:03:32;5.40;99.90
46217;DHT22;47258;59.424;13.482;2023-04-25T04:05:59;5.40;99.90
46217;DHT22;47258;59.424;13.482;2023-04-25T04:08:26;5.40;99.90
46217;DHT22;47258;59.424;13.482;2023-04-25T04:10:53;5.30;99.90
46217;DHT22;47258;59.424;13.482;2023-04-25T04:13:21;5.40;99.90
46217;DHT22;47258;59.424;13.482;2023-04-25T04:15:48;5.40;99.90
46217;DHT22;47258;59.424;13.482;2023-04-25T04:18:14;5.30;99.90
46217;DHT22;47258;59.424;13.482;2023-04-25T04:20:41;5.30;99.90
46217;DHT22;47258;59.424;13.482;2023-04-25T04:23:08;5.30;99.90
46217;DHT22;47258;59.424;13.482;2023-04-25T04:25:36;5.30;99.90
46217;DHT22;47258;59.424;13.482;2023-04-25T04:28:02;5.30;99.90
46217;DHT22;47258;59.424;13.482;2023-04-25T04:30:31;5.30;99.90
46217;DHT22;47258;59.424;13.482;2023-04-25T04:33:01;5.30;99.90
46217;DHT22;47258;59.424;13.482;2023-04-25T04:35:28;5.30;99.90
46217;DHT22;47258;59.424;13.482;2023-04-25T04:37:55;5.30;99.90
46217;DHT22;47258;59.424;13.482;2023-04-25T04:40:22;5.30;99.90
46217;DHT22;47258;59.424;13.482;2023-04-25T04:42:49;5.20;99.90
46217;DHT22;47258;59.424;13.482;2023-04-25T04:45:16;5.30;99.90
46217;DHT22;47258;59.424;13.482;2023-04-25T04:47:44;5.30;99.90
46217;DHT22;47258;59.424;13.482;2023-04-25T04:50:11;5.20;99.90
46217;DHT22;47258;59.424;13.482;2023-04-25T04:52:38;5.20;99.90
46217;DHT22;47258;59.424;13.482;2023-04-25T04:55:05;5.30;99.90
46217;DHT22;47258;59.424;13.482;2023-04-25T04:57:33;5.20;99.90
46217;DHT22;47258;59.424;13.482;2023-04-25T05:00:00;5.30;99.90
46217;DHT22;47258;59.424;13.482;2023-04-25T05:02:30;5.30;99.90
46217;DHT22;47258;59.424;13.482;2023-04-25T05:04:58;5.20;99.90
46217;DHT22;47258;59.424;13.482;2023-04-25T05:07:25;5.20;99.90
46217;DHT22;47258;59.424;13.482;2023-04-25T05:09:52;5.20;99.90
46217;DHT22;47258;59.424;13.482;2023-04-25T05:12:18;5.20;99.90
46217;DHT22;47258;59.424;13.482;2023-04-25T05:14:45;5.20;99.90
46217;DHT22;47258;59.424;13.482;2023-04-25T05:17:12;5.20;99.90
46217;DHT22;47258;59.424;13.482;2023-04-25T05:19:39;5.20;99.90
46217;DHT22;47258;59.424;13.482;2023-04-25T05:22:07;5.20;99.90
46217;DHT22;47258;59.424;13.482;2023-04-25T05:24:34;5.20;99.90
46217;DHT22;47258;59.424;13.482;2023-04-25T05:27:01;5.20;99.90
46217;DHT22;47258;59.424;13.482;2023-04-25T05:29:27;5.20;99.90
46217;DHT22;47258;59.424;13.482;2023-04-25T05:31:54;5.20;99.90
46217;DHT22;47258;59.424;13.482;2023-04-25T05:34:21;5.20;99.90
46217;DHT22;47258;59.424;13.482;2023-04-25T05:36:48;5.20;99.90
46217;DHT22;47258;59.424;13.482;2023-04-25T05:39:17;5.20;99.90
46217;DHT22;47258;59.424;13.482;2023-04-25T05:41:43;5.20;99.90
46217;DHT22;47258;59.424;13.482;2023-04-25T05:44:10;5.20;99.90
46217;DHT22;47258;59.424;13.482;2023-04-25T05:46:37;5.20;99.90
46217;DHT22;47258;59.424;13.482;2023-04-25T05:49:04;5.10;99.90
46217;DHT22;47258;59.424;13.482;2023-04-25T05:51:31;5.10;99.90
46217;DHT22;47258;59.424;13.482;2023-04-25T05:53:58;5.10;99.90
46217;DHT22;47258;59.424;13.482;2023-04-25T05:56:26;5.10;99.90
46217;DHT22;47258;59.424;13.482;2023-04-25T05:58:53;5.10;99.90
46217;DHT22;47258;59.424;13.482;2023-04-25T06:01:21;5.10;99.90
46217;DHT22;47258;59.424;13.482;2023-04-25T06:03:48;5.10;99.90
46217;DHT22;47258;59.424;13.482;2023-04-25T06:06:16;5.10;99.90
46217;DHT22;47258;59.424;13.482;2023-04-25T06:08:43;5.10;99.90
46217;DHT22;47258;59.424;13.482;2023-04-25T06:11:10;5.10;99.90
46217;DHT22;47258;59.424;13.482;2023-04-25T06:13:38;5.10;99.90
46217;DHT22;47258;59.424;13.482;2023-04-25T06:16:05;5.10;99.90
46217;DHT22;47258;59.424;13.482;2023-04-25T06:18:32;5.10;99.90
46217;DHT22;47258;59.424;13.482;2023-04-25T06:20:59;5.10;99.90
46217;DHT22;47258;59.424;13.482;2023-04-25T06:23:26;5.10;99.90
46217;DHT22;47258;59.424;13.482;2023-04-25T06:25:53;5.10;99.90
46217;DHT22;47258;59.424;13.482;2023-04-25T06:28:20;5.10;99.90
46217;DHT22;47258;59.424;13.482;2023-04-25T06:30:48;5.10;99.90
46217;DHT22;47258;59.424;13.482;2023-04-25T06:33:15;5.10;99.90
46217;DHT22;47258;59.424;13.482;2023-04-25T06:35:42;5.10;99.90
46217;DHT22;47258;59.424;13.482;2023-04-25T06:38:09;5.10;99.90
46217;DHT22;47258;59.424;13.482;2023-04-25T06:40:36;5.10;99.90
46217;DHT22;47258;59.424;13.482;2023-04-25T06:43:02;5.10;99.90
46217;DHT22;47258;59.424;13.482;2023-04-25T06:45:30;5.10;99.90
46217;DHT22;47258;59.424;13.482;2023-04-25T06:47:58;5.10;99.90
46217;DHT22;47258;59.424;13.482;2023-04-25T06:50:25;5.10;99.90
46217;DHT22;47258;59.424;13.482;2023-04-25T06:52:52;5.10;99.90
46217;DHT22;47258;59.424;13.482;2023-04-25T06:55:18;5.10;99.90
46217;DHT22;47258;59.424;13.482;2023-04-25T06:57:45;5.10;99.90
46217;DHT22;47258;59.424;13.482;2023-04-25T07:00:12;5.10;99.90
46217;DHT22;47258;59.424;13.482;2023-04-25T07:02:40;5.20;99.90
46217;DHT22;47258;59.424;13.482;2023-04-25T07:05:10;5.20;99.90
46217;DHT22;47258;59.424;13.482;2023-04-25T07:07:37;5.20;99.90
46217;DHT22;47258;59.424;13.482;2023-04-25T07:10:04;5.20;99.90
46217;DHT22;47258;59.424;13.482;2023-04-25T07:12:31;5.20;99.90
46217;DHT22;47258;59.424;13.482;2023-04-25T07:14:58;5.20;99.90
46217;DHT22;47258;59.424;13.482;2023-04-25T07:17:31;5.20;99.90
46217;DHT22;47258;59.424;13.482;2023-04-25T07:19:58;5.20;99.90
46217;DHT22;47258;59.424;13.482;2023-04-25T07:22:26;5.20;99.90
46217;DHT22;47258;59.424;13.482;2023-04-25T07:24:53;5.20;99.90
46217;DHT22;47258;59.424;13.482;2023-04-25T07:27:20;5.20;99.90
46217;DHT22;47258;59.424;13.482;2023-04-25T07:29:46;5.20;99.90
46217;DHT22;47258;59.424;13.482;2023-04-25T07:32:13;5.20;99.90
46217;DHT22;47258;59.424;13.482;2023-04-25T07:34:40;5.20;99.90
46217;DHT22;47258;59.424;13.482;2023-04-25T07:37:07;5.20;99.90
46217;DHT22;47258;59.424;13.482;2023-04-25T07:39:35;5.20;99.90
46217;DHT22;47258;59.424;13.482;2023-04-25T07:42:02;5.20;99.90
46217;DHT22;47258;59.424;13.482;2023-04-25T07:44:29;5.20;99.90
46217;DHT22;47258;59.424;13.482;2023-04-25T07:46:56;5.20;99.90
46217;DHT22;47258;59.424;13.482;2023-04-25T07:49:23;5.20;99.90
46217;DHT22;47258;59.424;13.482;2023-04-25T07:51:50;5.20;99.90
46217;DHT22;47258;59.424;13.482;2023-04-25T07:54:17;5.20;99.90
46217;DHT22;47258;59.424;13.482;2023-04-25T07:56:45;5.30;99.90
46217;DHT22;47258;59.424;13.482;2023-04-25T07:59:12;5.30;99.90
46217;DHT22;47258;59.424;13.482;2023-04-25T08:01:38;5.30;99.90
46217;DHT22;47258;59.424;13.482;2023-04-25T08:04:05;5.30;99.90
46217;DHT22;47258;59.424;13.482;2023-04-25T08:06:32;5.30;99.90
46217;DHT22;47258;59.424;13.482;2023-04-25T08:08:59;5.30;99.90
46217;DHT22;47258;59.424;13.482;2023-04-25T08:11:26;5.40;99.90
46217;DHT22;47258;59.424;13.482;2023-04-25T08:13:54;5.40;99.90
46217;DHT22;47258;59.424;13.482;2023-04-25T08:16:21;5.40;99.90
46217;DHT22;47258;59.424;13.482;2023-04-25T08:18:47;5.40;99.90
46217;DHT22;47258;59.424;13.482;2023-04-25T08:21:15;5.40;99.90
46217;DHT22;47258;59.424;13.482;2023-04-25T08:23:42;5.40;99.90
46217;DHT22;47258;59.424;13.482;2023-04-25T08:26:08;5.40;99.90
46217;DHT22;47258;59.424;13.482;2023-04-25T08:28:35;5.40;99.90
46217;DHT22;47258;59.424;13.482;2023-04-25T08:31:03;5.50;99.90
46217;DHT22;47258;59.424;13.482;2023-04-25T08:33:30;5.50;99.90
46217;DHT22;47258;59.424;13.482;2023-04-25T08:35:58;5.50;99.90
46217;DHT22;47258;59.424;13.482;2023-04-25T08:38:24;5.60;99.90
46217;DHT22;47258;59.424;13.482;2023-04-25T08:40:51;5.60;99.90
46217;DHT22;47258;59.424;13.482;2023-04-25T08:43:18;5.60;99.90
46217;DHT22;47258;59.424;13.482;2023-04-25T08:45:46;5.60;99.90
46217;DHT22;47258;59.424;13.482;2023-04-25T08:48:15;5.70;99.90
46217;DHT22;47258;59.424;13.482;2023-04-25T08:50:44;5.70;99.90
46217;DHT22;47258;59.424;13.482;2023-04-25T08:53:12;5.70;99.90
46217;DHT22;47258;59.424;13.482;2023-04-25T08:55:41;5.80;99.90
46217;DHT22;47258;59.424;13.482;2023-04-25T08:58:09;5.80;99.90
46217;DHT22;47258;59.424;13.482;2023-04-25T09:00:37;5.80;99.90
46217;DHT22;47258;59.424;13.482;2023-04-25T09:03:04;5.80;99.90
46217;DHT22;47258;59.424;13.482;2023-04-25T09:05:32;5.80;99.90
46217;DHT22;47258;59.424;13.482;2023-04-25T09:08:00;5.80;99.90
46217;DHT22;47258;59.424;13.482;2023-04-25T09:10:26;5.90;99.90
46217;DHT22;47258;59.424;13.482;2023-04-25T09:13:03;5.90;99.90
46217;DHT22;47258;59.424;13.482;2023-04-25T09:15:31;5.90;99.90
46217;DHT22;47258;59.424;13.482;2023-04-25T09:17:58;5.90;99.90
46217;DHT22;47258;59.424;13.482;2023-04-25T09:20:25;5.90;99.90
46217;DHT22;47258;59.424;13.482;2023-04-25T09:23:02;5.90;99.90
46217;DHT22;47258;59.424;13.482;2023-04-25T09:25:33;5.90;99.90
46217;DHT22;47258;59.424;13.482;2023-04-25T09:28:03;5.90;99.90
46217;DHT22;47258;59.424;13.482;2023-04-25T09:30:31;6.00;99.90
46217;DHT22;47258;59.424;13.482;2023-04-25T09:33:03;6.00;99.90
46217;DHT22;47258;59.424;13.482;2023-04-25T09:35:32;6.00;99.90
46217;DHT22;47258;59.424;13.482;2023-04-25T09:38:02;6.00;99.90
46217;DHT22;47258;59.424;13.482;2023-04-25T09:40:33;6.10;99.90
46217;DHT22;47258;59.424;13.482;2023-04-25T09:43:00;6.10;99.90
46217;DHT22;47258;59.424;13.482;2023-04-25T09:45:29;6.10;99.90
46217;DHT22;47258;59.424;13.482;2023-04-25T09:47:56;6.10;99.90
46217;DHT22;47258;59.424;13.482;2023-04-25T09:50:24;6.20;99.90
46217;DHT22;47258;59.424;13.482;2023-04-25T09:53:03;6.20;99.90
46217;DHT22;47258;59.424;13.482;2023-04-25T09:55:31;6.20;99.90
46217;DHT22;47258;59.424;13.482;2023-04-25T09:57:59;6.20;99.90
46217;DHT22;47258;59.424;13.482;2023-04-25T10:00:30;6.20;99.90
46217;DHT22;47258;59.424;13.482;2023-04-25T10:02:57;6.20;99.90
46217;DHT22;47258;59.424;13.482;2023-04-25T10:05:25;6.20;99.90
46217;DHT22;47258;59.424;13.482;2023-04-25T10:07:53;6.20;99.90
46217;DHT22;47258;59.424;13.482;2023-04-25T10:10:22;6.30;99.90
46217;DHT22;47258;59.424;13.482;2023-04-25T10:12:51;6.30;99.90
46217;DHT22;47258;59.424;13.482;2023-04-25T10:15:18;6.30;99.90
46217;DHT22;47258;59.424;13.482;2023-04-25T10:17:45;6.30;99.90
46217;DHT22;47258;59.424;13.482;2023-04-25T10:20:12;6.30;99.90
46217;DHT22;47258;59.424;13.482;2023-04-25T10:22:41;6.30;99.90
46217;DHT22;47258;59.424;13.482;2023-04-25T10:25:08;6.30;99.90
46217;DHT22;47258;59.424;13.482;2023-04-25T10:27:36;6.40;99.90
46217;DHT22;47258;59.424;13.482;2023-04-25T10:30:04;6.40;99.90
46217;DHT22;47258;59.424;13.482;2023-04-25T10:32:31;6.40;99.90
46217;DHT22;47258;59.424;13.482;2023-04-25T10:35:09;6.50;99.90
46217;DHT22;47258;59.424;13.482;2023-04-25T10:37:36;6.50;99.90
46217;DHT22;47258;59.424;13.482;2023-04-25T10:40:07;6.50;99.90
46217;DHT22;47258;59.424;13.482;2023-04-25T10:42:35;6.50;99.90
46217;DHT22;47258;59.424;13.482;2023-04-25T10:45:04;6.50;99.90
46217;DHT22;47258;59.424;13.482;2023-04-25T10:47:35;6.50;99.90
46217;DHT22;47258;59.424;13.482;2023-04-25T10:50:04;6.50;99.90
46217;DHT22;47258;59.424;13.482;2023-04-25T10:52:32;6.60;99.90
46217;DHT22;47258;59.424;13.482;2023-04-25T10:54:59;6.50;99.90
46217;DHT22;47258;59.424;13.482;2023-04-25T10:57:30;6.50;99.90
46217;DHT22;47258;59.424;13.482;2023-04-25T11:00:08;6.50;99.90
46217;DHT22;47258;59.424;13.482;2023-04-25T11:02:42;6.60;99.90
46217;DHT22;47258;59.424;13.482;2023-04-25T11:05:10;6.60;99.90
46217;DHT22;47258;59.424;13.482;2023-04-25T11:07:39;6.60;99.90
46217;DHT22;47258;59.424;13.482;2023-04-25T11:10:10;6.70;99.90
46217;DHT22;47258;59.424;13.482;2023-04-25T11:12:37;6.70;99.90
46217;DHT22;47258;59.424;13.482;2023-04-25T11:15:04;6.70;99.90
46217;DHT22;47258;59.424;13.482;2023-04-25T11:17:33;6.70;99.90
46217;DHT22;47258;59.424;13.482;2023-04-25T11:20:00;6.80;99.90
46217;DHT22;47258;59.424;13.482;2023-04-25T11:22:29;6.80;99.90
46217;DHT22;47258;59.424;13.482;2023-04-25T11:24:56;6.80;99.90
46217;DHT22;47258;59.424;13.482;2023-04-25T11:27:23;6.80;99.90
46217;DHT22;47258;59.424;13.482;2023-04-25T11:29:50;6.80;99.90
46217;DHT22;47258;59.424;13.482;2023-04-25T11:32:17;6.90;99.90
46217;DHT22;47258;59.424;13.482;2023-04-25T11:34:46;6.90;99.90
46217;DHT22;47258;59.424;13.482;2023-04-25T11:37:13;6.90;99.90
46217;DHT22;47258;59.424;13.482;2023-04-25T11:39:42;6.90;99.90
46217;DHT22;47258;59.424;13.482;2023-04-25T11:42:09;6.90;99.90
46217;DHT22;47258;59.424;13.482;2023-04-25T11:44:37;7.00;99.90
46217;DHT22;47258;59.424;13.482;2023-04-25T11:47:04;7.00;99.90
46217;DHT22;47258;59.424;13.482;2023-04-25T11:49:31;7.00;99.90
46217;DHT22;47258;59.424;13.482;2023-04-25T11:51:59;7.00;99.90
46217;DHT22;47258;59.424;13.482;2023-04-25T11:54:26;7.10;99.90
46217;DHT22;47258;59.424;13.482;2023-04-25T11:56:53;7.10;99.90
46217;DHT22;47258;59.424;13.482;2023-04-25T11:59:22;7.10;99.90
46217;DHT22;47258;59.424;13.482;2023-04-25T12:01:50;7.10;99.90
46217;DHT22;47258;59.424;13.482;2023-04-25T12:04:17;7.10;99.90
46217;DHT22;47258;59.424;13.482;2023-04-25T12:06:45;7.10;99.90
46217;DHT22;47258;59.424;13.482;2023-04-25T12:09:15;7.20;99.90
46217;DHT22;47258;59.424;13.482;2023-04-25T12:11:43;7.20;99.90
46217;DHT22;47258;59.424;13.482;2023-04-25T12:14:10;7.20;99.90
46217;DHT22;47258;59.424;13.482;2023-04-25T12:16:41;7.20;99.90
46217;DHT22;47258;59.424;13.482;2023-04-25T12:19:08;7.20;99.90
46217;DHT22;47258;59.424;13.482;2023-04-25T12:21:35;7.30;99.90
46217;DHT22;47258;59.424;13.482;2023-04-25T12:24:09;7.30;99.90
46217;DHT22;47258;59.424;13.482;2023-04-25T12:26:47;7.30;99.90
46217;DHT22;47258;59.424;13.482;2023-04-25T12:29:17;7.40;99.90
46217;DHT22;47258;59.424;13.482;2023-04-25T12:31:44;7.40;99.90
46217;DHT22;47258;59.424;13.482;2023-04-25T12:34:12;7.40;99.90
46217;DHT22;47258;59.424;13.482;2023-04-25T12:36:38;7.40;99.90
46217;DHT22;47258;59.424;13.482;2023-04-25T12:39:05;7.50;99.90
46217;DHT22;47258;59.424;13.482;2023-04-25T12:41:33;7.50;99.90
46217;DHT22;47258;59.424;13.482;2023-04-25T12:44:01;7.50;99.90
46217;DHT22;47258;59.424;13.482;2023-04-25T12:46:28;7.60;99.90
46217;DHT22;47258;59.424;13.482;2023-04-25T12:48:55;7.60;99.90
46217;DHT22;47258;59.424;13.482;2023-04-25T12:51:22;7.60;99.90
46217;DHT22;47258;59.424;13.482;2023-04-25T12:53:50;7.70;99.90
46217;DHT22;47258;59.424;13.482;2023-04-25T12:56:17;7.70;99.90
46217;DHT22;47258;59.424;13.482;2023-04-25T12:58:44;7.70;99.90
46217;DHT22;47258;59.424;13.482;2023-04-25T13:01:13;7.80;99.90
46217;DHT22;47258;59.424;13.482;2023-04-25T13:03:40;7.80;99.90
46217;DHT22;47258;59.424;13.482;2023-04-25T13:06:07;7.90;99.90
46217;DHT22;47258;59.424;13.482;2023-04-25T13:08:34;7.90;99.90
46217;DHT22;47258;59.424;13.482;2023-04-25T13:11:02;7.90;99.90
46217;DHT22;47258;59.424;13.482;2023-04-25T13:13:29;8.00;99.90
46217;DHT22;47258;59.424;13.482;2023-04-25T13:15:56;8.00;99.90
46217;DHT22;47258;59.424;13.482;2023-04-25T13:18:25;8.00;99.90
46217;DHT22;47258;59.424;13.482;2023-04-25T13:20:52;8.10;99.90
46217;DHT22;47258;59.424;13.482;2023-04-25T13:23:19;8.10;99.90
46217;DHT22;47258;59.424;13.482;2023-04-25T13:25:46;8.10;99.90
46217;DHT22;47258;59.424;13.482;2023-04-25T13:28:13;8.10;99.90
46217;DHT22;47258;59.424;13.482;2023-04-25T13:30:40;8.20;99.90
46217;DHT22;47258;59.424;13.482;2023-04-25T13:33:07;8.20;99.90
46217;DHT22;47258;59.424;13.482;2023-04-25T13:35:36;8.20;99.90
46217;DHT22;47258;59.424;13.482;2023-04-25T13:38:03;8.30;99.90
46217;DHT22;47258;59.424;13.482;2023-04-25T13:40:30;8.20;99.90
46217;DHT22;47258;59.424;13.482;2023-04-25T13:42:58;8.30;99.90
46217;DHT22;47258;59.424;13.482;2023-04-25T13:45:25;8.30;99.90
46217;DHT22;47258;59.424;13.482;2023-04-25T13:47:51;8.30;99.90
46217;DHT22;47258;59.424;13.482;2023-04-25T13:50:18;8.30;99.90
46217;DHT22;47258;59.424;13.482;2023-04-25T13:52:47;8.40;99.90
46217;DHT22;47258;59.424;13.482;2023-04-25T13:55:13;8.40;99.90
46217;DHT22;47258;59.424;13.482;2023-04-25T13:57:40;8.40;99.90
46217;DHT22;47258;59.424;13.482;2023-04-25T14:00:08;8.40;99.90
46217;DHT22;47258;59.424;13.482;2023-04-25T14:02:35;8.40;99.90
46217;DHT22;47258;59.424;13.482;2023-04-25T14:05:02;8.50;99.90
46217;DHT22;47258;59.424;13.482;2023-04-25T14:07:29;8.50;99.90
46217;DHT22;47258;59.424;13.482;2023-04-25T14:09:58;8.50;99.90
46217;DHT22;47258;59.424;13.482;2023-04-25T14:12:24;8.50;99.90
46217;DHT22;47258;59.424;13.482;2023-04-25T14:14:51;8.60;99.90
46217;DHT22;47258;59.424;13.482;2023-04-25T14:17:18;8.60;99.90
46217;DHT22;47258;59.424;13.482;2023-04-25T14:19:45;8.60;99.90
46217;DHT22;47258;59.424;13.482;2023-04-25T14:22:13;8.60;99.90
46217;DHT22;47258;59.424;13.482;2023-04-25T14:24:40;8.60;99.90
46217;DHT22;47258;59.424;13.482;2023-04-25T14:27:08;8.60;99.90
46217;DHT22;47258;59.424;13.482;2023-04-25T14:29:35;8.60;99.90
46217;DHT22;47258;59.424;13.482;2023-04-25T14:32:02;8.60;99.90
46217;DHT22;47258;59.424;13.482;2023-04-25T14:34:30;8.60;99.90
46217;DHT22;47258;59.424;13.482;2023-04-25T14:36:57;8.60;99.90
46217;DHT22;47258;59.424;13.482;2023-04-25T14:39:24;8.60;99.90
46217;DHT22;47258;59.424;13.482;2023-04-25T14:41:50;8.60;99.90
46217;DHT22;47258;59.424;13.482;2023-04-25T14:44:19;8.60;99.90
46217;DHT22;47258;59.424;13.482;2023-04-25T14:46:45;8.60;99.90
46217;DHT22;47258;59.424;13.482;2023-04-25T14:49:12;8.60;99.90
46217;DHT22;47258;59.424;13.482;2023-04-25T14:51:39;8.60;99.90
46217;DHT22;47258;59.424;13.482;2023-04-25T14:54:06;8.60;99.90
46217;DHT22;47258;59.424;13.482;2023-04-25T14:56:33;8.60;99.90
46217;DHT22;47258;59.424;13.482;2023-04-25T14:59:00;8.60;99.90
46217;DHT22;47258;59.424;13.482;2023-04-25T15:01:28;8.60;99.90
46217;DHT22;47258;59.424;13.482;2023-04-25T15:03:55;8.60;99.90
46217;DHT22;47258;59.424;13.482;2023-04-25T15:06:22;8.60;99.90
46217;DHT22;47258;59.424;13.482;2023-04-25T15:08:51;8.60;99.90
46217;DHT22;47258;59.424;13.482;2023-04-25T15:11:18;8.60;99.90
46217;DHT22;47258;59.424;13.482;2023-04-25T15:13:45;8.60;99.90
46217;DHT22;47258;59.424;13.482;2023-04-25T15:16:12;8.60;99.90
46217;DHT22;47258;59.424;13.482;2023-04-25T15:18:40;8.60;99.90
46217;DHT22;47258;59.424;13.482;2023-04-25T15:21:07;8.60;99.90
46217;DHT22;47258;59.424;13.482;2023-04-25T15:23:34;8.60;99.90
46217;DHT22;47258;59.424;13.482;2023-04-25T15:26:00;8.60;99.90
46217;DHT22;47258;59.424;13.482;2023-04-25T15:28:27;8.60;99.90
46217;DHT22;47258;59.424;13.482;2023-04-25T15:30:54;8.60;99.90
46217;DHT22;47258;59.424;13.482;2023-04-25T15:33:21;8.60;99.90